sensor_id;sensor_type;location;lat;lon;timestamp;P1;durP1;ratioP1;P2;durP2;ratioP2
51495;SDS011;37572;52.094;4.870;2023-07-13T00:00:52;10.40;;;3.87;;
51495;SDS011;37572;52.094;4.870;2023-07-13T00:03:18;11.80;;;3.40;;
51495;SDS011;37572;52.094;4.870;2023-07-13T00:05:43;11.00;;;3.95;;
51495;SDS011;37572;52.094;4.870;2023-07-13T00:08:08;13.30;;;3.58;;
51495;SDS011;37572;52.094;4.870;2023-07-13T00:10:42;10.50;;;3.67;;
51495;SDS011;37572;52.094;4.870;2023-07-13T00:13:08;12.70;;;3.95;;
51495;SDS011;37572;52.094;4.870;2023-07-13T00:15:33;10.55;;;3.65;;
51495;SDS011;37572;52.094;4.870;2023-07-13T00:18:00;12.30;;;3.42;;
51495;SDS011;37572;52.094;4.870;2023-07-13T00:20:26;20.70;;;4.60;;
51495;SDS011;37572;52.094;4.870;2023-07-13T00:22:51;14.10;;;4.15;;
51495;SDS011;37572;52.094;4.870;2023-07-13T00:25:18;11.55;;;3.83;;
51495;SDS011;37572;52.094;4.870;2023-07-13T00:27:49;13.00;;;4.75;;
51495;SDS011;37572;52.094;4.870;2023-07-13T00:30:15;16.27;;;3.88;;
51495;SDS011;37572;52.094;4.870;2023-07-13T00:32:41;14.10;;;3.88;;
51495;SDS011;37572;52.094;4.870;2023-07-13T00:35:06;15.40;;;3.90;;
51495;SDS011;37572;52.094;4.870;2023-07-13T00:37:32;15.45;;;4.57;;
51495;SDS011;37572;52.094;4.870;2023-07-13T00:40:00;21.92;;;5.25;;
51495;SDS011;37572;52.094;4.870;2023-07-13T00:42:25;12.57;;;4.13;;
51495;SDS011;37572;52.094;4.870;2023-07-13T00:45:04;17.98;;;4.53;;
51495;SDS011;37572;52.094;4.870;2023-07-13T00:47:36;16.48;;;4.05;;
51495;SDS011;37572;52.094;4.870;2023-07-13T00:50:02;15.63;;;3.42;;
51495;SDS011;37572;52.094;4.870;2023-07-13T00:52:28;14.73;;;4.47;;
51495;SDS011;37572;52.094;4.870;2023-07-13T00:54:54;20.00;;;4.00;;
51495;SDS011;37572;52.094;4.870;2023-07-13T00:57:21;15.63;;;4.65;;
51495;SDS011;37572;52.094;4.870;2023-07-13T00:59:48;13.70;;;4.13;;
51495;SDS011;37572;52.094;4.870;2023-07-13T01:02:17;10.30;;;3.80;;
51495;SDS011;37572;52.094;4.870;2023-07-13T01:04:43;13.20;;;3.97;;
51495;SDS011;37572;52.094;4.870;2023-07-13T01:07:08;13.57;;;3.67;;
51495;SDS011;37572;52.094;4.870;2023-07-13T01:09:34;15.23;;;3.60;;
51495;SDS011;37572;52.094;4.870;2023-07-13T01:12:00;15.07;;;4.20;;
51495;SDS011;37572;52.094;4.870;2023-07-13T01:14:26;12.55;;;3.80;;
51495;SDS011;37572;52.094;4.870;2023-07-13T01:16:51;11.83;;;3.87;;
51495;SDS011;37572;52.094;4.870;2023-07-13T01:22:01;10.75;;;3.13;;
51495;SDS011;37572;52.094;4.870;2023-07-13T01:24:37;17.27;;;4.15;;
51495;SDS011;37572;52.094;4.870;2023-07-13T01:27:04;12.32;;;3.58;;
51495;SDS011;37572;52.094;4.870;2023-07-13T01:29:32;12.55;;;3.40;;
51495;SDS011;37572;52.094;4.870;2023-07-13T01:31:59;13.55;;;4.28;;
51495;SDS011;37572;52.094;4.870;2023-07-13T01:34:26;13.07;;;4.07;;
51495;SDS011;37572;52.094;4.870;2023-07-13T01:36:52;13.63;;;3.63;;
51495;SDS011;37572;52.094;4.870;2023-07-13T01:39:19;12.75;;;3.22;;
51495;SDS011;37572;52.094;4.870;2023-07-13T01:41:45;10.20;;;3.08;;
51495;SDS011;37572;52.094;4.870;2023-07-13T01:44:11;11.40;;;3.53;;
51495;SDS011;37572;52.094;4.870;2023-07-13T01:46:36;10.80;;;3.40;;
51495;SDS011;37572;52.094;4.870;2023-07-13T01:49:01;17.40;;;3.87;;
51495;SDS011;37572;52.094;4.870;2023-07-13T01:51:27;16.65;;;4.60;;
51495;SDS011;37572;52.094;4.870;2023-07-13T01:53:52;15.70;;;3.43;;
51495;SDS011;37572;52.094;4.870;2023-07-13T01:56:18;10.40;;;3.13;;
51495;SDS011;37572;52.094;4.870;2023-07-13T01:58:44;14.95;;;4.18;;
51495;SDS011;37572;52.094;4.870;2023-07-13T02:01:10;16.05;;;4.05;;
51495;SDS011;37572;52.094;4.870;2023-07-13T02:03:35;13.20;;;4.07;;
51495;SDS011;37572;52.094;4.870;2023-07-13T02:06:01;17.70;;;4.27;;
51495;SDS011;37572;52.094;4.870;2023-07-13T02:08:26;13.85;;;4.07;;
51495;SDS011;37572;52.094;4.870;2023-07-13T02:10:51;15.20;;;4.37;;
51495;SDS011;37572;52.094;4.870;2023-07-13T02:13:17;14.03;;;4.60;;
51495;SDS011;37572;52.094;4.870;2023-07-13T02:15:42;10.43;;;3.53;;
51495;SDS011;37572;52.094;4.870;2023-07-13T02:18:07;11.60;;;3.67;;
51495;SDS011;37572;52.094;4.870;2023-07-13T02:20:33;10.17;;;3.37;;
51495;SDS011;37572;52.094;4.870;2023-07-13T02:22:58;14.23;;;3.85;;
51495;SDS011;37572;52.094;4.870;2023-07-13T02:25:23;8.20;;;3.10;;
51495;SDS011;37572;52.094;4.870;2023-07-13T02:27:50;9.52;;;3.38;;
51495;SDS011;37572;52.094;4.870;2023-07-13T02:30:15;12.00;;;4.80;;
51495;SDS011;37572;52.094;4.870;2023-07-13T02:32:40;14.13;;;3.60;;
51495;SDS011;37572;52.094;4.870;2023-07-13T02:35:06;9.10;;;3.03;;
51495;SDS011;37572;52.094;4.870;2023-07-13T02:37:31;11.25;;;3.85;;
51495;SDS011;37572;52.094;4.870;2023-07-13T02:39:57;10.77;;;3.95;;
51495;SDS011;37572;52.094;4.870;2023-07-13T02:42:22;14.77;;;4.22;;
51495;SDS011;37572;52.094;4.870;2023-07-13T02:44:47;10.43;;;4.13;;
51495;SDS011;37572;52.094;4.870;2023-07-13T02:47:14;11.20;;;4.18;;
51495;SDS011;37572;52.094;4.870;2023-07-13T02:49:40;10.15;;;2.40;;
51495;SDS011;37572;52.094;4.870;2023-07-13T02:52:05;11.40;;;3.45;;
51495;SDS011;37572;52.094;4.870;2023-07-13T02:54:31;8.77;;;2.70;;
51495;SDS011;37572;52.094;4.870;2023-07-13T02:56:56;7.22;;;2.45;;
51495;SDS011;37572;52.094;4.870;2023-07-13T02:59:22;7.60;;;2.60;;
51495;SDS011;37572;52.094;4.870;2023-07-13T03:01:47;8.18;;;2.58;;
51495;SDS011;37572;52.094;4.870;2023-07-13T03:04:12;6.17;;;2.70;;
51495;SDS011;37572;52.094;4.870;2023-07-13T03:06:38;7.00;;;2.10;;
51495;SDS011;37572;52.094;4.870;2023-07-13T03:09:03;8.30;;;2.72;;
51495;SDS011;37572;52.094;4.870;2023-07-13T03:11:29;8.02;;;2.75;;
51495;SDS011;37572;52.094;4.870;2023-07-13T03:13:54;9.52;;;3.13;;
51495;SDS011;37572;52.094;4.870;2023-07-13T03:16:20;8.88;;;3.40;;
51495;SDS011;37572;52.094;4.870;2023-07-13T03:18:46;12.20;;;3.03;;
51495;SDS011;37572;52.094;4.870;2023-07-13T03:21:13;9.25;;;3.00;;
51495;SDS011;37572;52.094;4.870;2023-07-13T03:23:38;8.43;;;3.20;;
51495;SDS011;37572;52.094;4.870;2023-07-13T03:26:08;12.35;;;3.00;;
51495;SDS011;37572;52.094;4.870;2023-07-13T03:28:36;10.25;;;3.35;;
51495;SDS011;37572;52.094;4.870;2023-07-13T03:31:17;8.80;;;3.08;;
51495;SDS011;37572;52.094;4.870;2023-07-13T03:33:45;8.95;;;3.15;;
51495;SDS011;37572;52.094;4.870;2023-07-13T03:36:13;7.40;;;2.70;;
51495;SDS011;37572;52.094;4.870;2023-07-13T03:38:56;13.85;;;3.53;;
51495;SDS011;37572;52.094;4.870;2023-07-13T03:41:22;12.68;;;2.97;;
51495;SDS011;37572;52.094;4.870;2023-07-13T03:43:49;11.52;;;3.45;;
51495;SDS011;37572;52.094;4.870;2023-07-13T03:46:14;13.15;;;3.55;;
51495;SDS011;37572;52.094;4.870;2023-07-13T03:48:41;8.38;;;3.40;;
51495;SDS011;37572;52.094;4.870;2023-07-13T03:51:09;11.35;;;3.60;;
51495;SDS011;37572;52.094;4.870;2023-07-13T03:53:37;13.82;;;3.80;;
51495;SDS011;37572;52.094;4.870;2023-07-13T03:56:04;11.65;;;3.63;;
51495;SDS011;37572;52.094;4.870;2023-07-13T03:58:33;13.75;;;4.00;;
51495;SDS011;37572;52.094;4.870;2023-07-13T04:01:01;9.30;;;3.90;;
51495;SDS011;37572;52.094;4.870;2023-07-13T04:03:27;16.17;;;3.78;;
51495;SDS011;37572;52.094;4.870;2023-07-13T04:05:54;10.27;;;4.03;;
51495;SDS011;37572;52.094;4.870;2023-07-13T04:08:24;10.65;;;4.40;;
51495;SDS011;37572;52.094;4.870;2023-07-13T04:10:50;11.85;;;4.15;;
51495;SDS011;37572;52.094;4.870;2023-07-13T04:13:15;10.53;;;4.17;;
51495;SDS011;37572;52.094;4.870;2023-07-13T04:15:40;10.67;;;4.63;;
51495;SDS011;37572;52.094;4.870;2023-07-13T04:18:06;18.07;;;4.20;;
51495;SDS011;37572;52.094;4.870;2023-07-13T04:20:31;12.80;;;4.05;;
51495;SDS011;37572;52.094;4.870;2023-07-13T04:22:57;16.88;;;4.75;;
51495;SDS011;37572;52.094;4.870;2023-07-13T04:25:23;13.52;;;5.07;;
51495;SDS011;37572;52.094;4.870;2023-07-13T04:27:49;18.05;;;5.68;;
51495;SDS011;37572;52.094;4.870;2023-07-13T04:30:14;15.07;;;5.55;;
51495;SDS011;37572;52.094;4.870;2023-07-13T04:32:40;13.03;;;5.70;;
51495;SDS011;37572;52.094;4.870;2023-07-13T04:35:05;11.83;;;5.27;;
51495;SDS011;37572;52.094;4.870;2023-07-13T04:37:30;18.40;;;6.13;;
51495;SDS011;37572;52.094;4.870;2023-07-13T04:39:56;15.35;;;5.97;;
51495;SDS011;37572;52.094;4.870;2023-07-13T04:42:22;18.17;;;5.18;;
51495;SDS011;37572;52.094;4.870;2023-07-13T04:44:48;12.07;;;5.70;;
51495;SDS011;37572;52.094;4.870;2023-07-13T04:47:14;17.73;;;5.88;;
51495;SDS011;37572;52.094;4.870;2023-07-13T04:49:39;17.13;;;6.23;;
51495;SDS011;37572;52.094;4.870;2023-07-13T04:52:05;21.13;;;6.00;;
51495;SDS011;37572;52.094;4.870;2023-07-13T04:54:32;18.30;;;5.93;;
51495;SDS011;37572;52.094;4.870;2023-07-13T04:56:58;18.08;;;7.22;;
51495;SDS011;37572;52.094;4.870;2023-07-13T04:59:23;17.23;;;5.50;;
51495;SDS011;37572;52.094;4.870;2023-07-13T05:01:48;14.60;;;5.70;;
51495;SDS011;37572;52.094;4.870;2023-07-13T05:04:14;20.83;;;6.10;;
51495;SDS011;37572;52.094;4.870;2023-07-13T05:06:39;21.63;;;5.67;;
51495;SDS011;37572;52.094;4.870;2023-07-13T05:09:05;19.33;;;5.53;;
51495;SDS011;37572;52.094;4.870;2023-07-13T05:11:30;18.27;;;6.00;;
51495;SDS011;37572;52.094;4.870;2023-07-13T05:13:56;18.80;;;5.87;;
51495;SDS011;37572;52.094;4.870;2023-07-13T05:16:21;15.87;;;5.80;;
51495;SDS011;37572;52.094;4.870;2023-07-13T05:18:46;14.18;;;5.60;;
51495;SDS011;37572;52.094;4.870;2023-07-13T05:21:12;19.20;;;6.88;;
51495;SDS011;37572;52.094;4.870;2023-07-13T05:23:39;14.60;;;5.83;;
51495;SDS011;37572;52.094;4.870;2023-07-13T05:26:06;15.32;;;6.13;;
51495;SDS011;37572;52.094;4.870;2023-07-13T05:28:32;18.10;;;5.43;;
51495;SDS011;37572;52.094;4.870;2023-07-13T05:30:58;14.80;;;5.60;;
51495;SDS011;37572;52.094;4.870;2023-07-13T05:33:23;15.52;;;5.53;;
51495;SDS011;37572;52.094;4.870;2023-07-13T05:35:49;15.15;;;5.90;;
51495;SDS011;37572;52.094;4.870;2023-07-13T05:38:15;17.00;;;5.57;;
51495;SDS011;37572;52.094;4.870;2023-07-13T05:40:44;16.20;;;5.15;;
51495;SDS011;37572;52.094;4.870;2023-07-13T05:43:10;15.18;;;5.63;;
51495;SDS011;37572;52.094;4.870;2023-07-13T05:45:36;18.67;;;6.15;;
51495;SDS011;37572;52.094;4.870;2023-07-13T05:48:02;22.50;;;6.65;;
51495;SDS011;37572;52.094;4.870;2023-07-13T05:50:27;15.25;;;6.05;;
51495;SDS011;37572;52.094;4.870;2023-07-13T05:52:52;20.92;;;7.38;;
51495;SDS011;37572;52.094;4.870;2023-07-13T05:55:18;20.60;;;5.53;;
51495;SDS011;37572;52.094;4.870;2023-07-13T05:57:44;18.25;;;6.28;;
51495;SDS011;37572;52.094;4.870;2023-07-13T06:00:09;16.83;;;6.70;;
51495;SDS011;37572;52.094;4.870;2023-07-13T06:02:35;21.67;;;6.82;;
51495;SDS011;37572;52.094;4.870;2023-07-13T06:05:01;19.43;;;5.73;;
51495;SDS011;37572;52.094;4.870;2023-07-13T06:07:26;16.33;;;5.73;;
51495;SDS011;37572;52.094;4.870;2023-07-13T06:09:51;15.50;;;5.83;;
51495;SDS011;37572;52.094;4.870;2023-07-13T06:12:16;13.13;;;5.13;;
51495;SDS011;37572;52.094;4.870;2023-07-13T06:14:42;15.73;;;5.90;;
51495;SDS011;37572;52.094;4.870;2023-07-13T06:17:07;14.93;;;5.90;;
51495;SDS011;37572;52.094;4.870;2023-07-13T06:19:33;21.80;;;6.47;;
51495;SDS011;37572;52.094;4.870;2023-07-13T06:21:59;14.63;;;5.45;;
51495;SDS011;37572;52.094;4.870;2023-07-13T06:24:24;17.48;;;5.88;;
51495;SDS011;37572;52.094;4.870;2023-07-13T06:26:50;16.20;;;5.97;;
51495;SDS011;37572;52.094;4.870;2023-07-13T06:29:15;16.55;;;6.90;;
51495;SDS011;37572;52.094;4.870;2023-07-13T06:31:41;16.80;;;6.15;;
51495;SDS011;37572;52.094;4.870;2023-07-13T06:34:06;15.87;;;6.10;;
51495;SDS011;37572;52.094;4.870;2023-07-13T06:36:31;10.67;;;5.17;;
51495;SDS011;37572;52.094;4.870;2023-07-13T06:38:57;15.60;;;5.30;;
51495;SDS011;37572;52.094;4.870;2023-07-13T06:41:22;15.60;;;5.65;;
51495;SDS011;37572;52.094;4.870;2023-07-13T06:43:49;9.90;;;3.88;;
51495;SDS011;37572;52.094;4.870;2023-07-13T06:46:14;9.87;;;4.03;;
51495;SDS011;37572;52.094;4.870;2023-07-13T06:48:39;9.75;;;4.00;;
51495;SDS011;37572;52.094;4.870;2023-07-13T06:51:05;8.43;;;3.40;;
51495;SDS011;37572;52.094;4.870;2023-07-13T06:53:30;5.35;;;2.75;;
51495;SDS011;37572;52.094;4.870;2023-07-13T06:55:56;7.22;;;3.45;;
51495;SDS011;37572;52.094;4.870;2023-07-13T06:58:21;7.10;;;3.05;;
51495;SDS011;37572;52.094;4.870;2023-07-13T07:00:46;6.25;;;3.28;;
51495;SDS011;37572;52.094;4.870;2023-07-13T07:03:15;7.03;;;3.50;;
51495;SDS011;37572;52.094;4.870;2023-07-13T07:05:41;7.47;;;3.60;;
51495;SDS011;37572;52.094;4.870;2023-07-13T07:08:06;6.65;;;3.30;;
51495;SDS011;37572;52.094;4.870;2023-07-13T07:10:31;8.90;;;3.88;;
51495;SDS011;37572;52.094;4.870;2023-07-13T07:12:57;6.15;;;3.70;;
51495;SDS011;37572;52.094;4.870;2023-07-13T07:15:22;7.40;;;4.00;;
51495;SDS011;37572;52.094;4.870;2023-07-13T07:17:47;5.82;;;4.18;;
51495;SDS011;37572;52.094;4.870;2023-07-13T07:20:13;7.30;;;3.50;;
51495;SDS011;37572;52.094;4.870;2023-07-13T07:22:38;14.15;;;3.88;;
51495;SDS011;37572;52.094;4.870;2023-07-13T07:25:03;8.40;;;4.43;;
51495;SDS011;37572;52.094;4.870;2023-07-13T07:27:29;9.48;;;4.72;;
51495;SDS011;37572;52.094;4.870;2023-07-13T07:29:55;9.10;;;4.72;;
51495;SDS011;37572;52.094;4.870;2023-07-13T07:32:22;9.05;;;4.85;;
51495;SDS011;37572;52.094;4.870;2023-07-13T07:34:47;8.82;;;3.88;;
51495;SDS011;37572;52.094;4.870;2023-07-13T07:37:13;8.38;;;3.58;;
51495;SDS011;37572;52.094;4.870;2023-07-13T07:39:39;7.95;;;3.72;;
51495;SDS011;37572;52.094;4.870;2023-07-13T07:42:05;6.15;;;3.08;;
51495;SDS011;37572;52.094;4.870;2023-07-13T07:44:31;6.63;;;3.25;;
51495;SDS011;37572;52.094;4.870;2023-07-13T07:46:56;7.25;;;4.85;;
51495;SDS011;37572;52.094;4.870;2023-07-13T07:49:22;6.75;;;4.20;;
51495;SDS011;37572;52.094;4.870;2023-07-13T07:51:47;7.80;;;4.85;;
51495;SDS011;37572;52.094;4.870;2023-07-13T07:54:12;9.77;;;5.13;;
51495;SDS011;37572;52.094;4.870;2023-07-13T07:56:38;13.50;;;6.93;;
51495;SDS011;37572;52.094;4.870;2023-07-13T07:59:03;11.30;;;6.07;;
51495;SDS011;37572;52.094;4.870;2023-07-13T08:01:29;13.93;;;6.95;;
51495;SDS011;37572;52.094;4.870;2023-07-13T08:03:54;10.57;;;6.75;;
51495;SDS011;37572;52.094;4.870;2023-07-13T08:06:19;11.38;;;5.82;;
51495;SDS011;37572;52.094;4.870;2023-07-13T08:08:45;9.20;;;5.43;;
51495;SDS011;37572;52.094;4.870;2023-07-13T08:11:10;8.30;;;4.72;;
51495;SDS011;37572;52.094;4.870;2023-07-13T08:13:36;8.27;;;4.25;;
51495;SDS011;37572;52.094;4.870;2023-07-13T08:16:03;8.82;;;4.50;;
51495;SDS011;37572;52.094;4.870;2023-07-13T08:18:30;11.07;;;4.90;;
51495;SDS011;37572;52.094;4.870;2023-07-13T08:20:55;9.43;;;4.63;;
51495;SDS011;37572;52.094;4.870;2023-07-13T08:23:21;9.05;;;5.07;;
51495;SDS011;37572;52.094;4.870;2023-07-13T08:25:51;8.32;;;5.57;;
51495;SDS011;37572;52.094;4.870;2023-07-13T08:28:18;8.75;;;3.75;;
51495;SDS011;37572;52.094;4.870;2023-07-13T08:30:45;7.80;;;4.93;;
51495;SDS011;37572;52.094;4.870;2023-07-13T08:33:13;10.18;;;4.97;;
51495;SDS011;37572;52.094;4.870;2023-07-13T08:35:45;6.43;;;3.88;;
51495;SDS011;37572;52.094;4.870;2023-07-13T08:38:11;7.72;;;4.22;;
51495;SDS011;37572;52.094;4.870;2023-07-13T08:40:36;6.80;;;3.37;;
51495;SDS011;37572;52.094;4.870;2023-07-13T08:43:02;7.90;;;4.53;;
51495;SDS011;37572;52.094;4.870;2023-07-13T08:45:36;8.07;;;4.40;;
51495;SDS011;37572;52.094;4.870;2023-07-13T08:48:14;7.50;;;4.25;;
51495;SDS011;37572;52.094;4.870;2023-07-13T08:53:59;7.30;;;4.65;;
51495;SDS011;37572;52.094;4.870;2023-07-13T08:56:29;8.05;;;4.40;;
51495;SDS011;37572;52.094;4.870;2023-07-13T08:58:56;9.15;;;4.38;;
51495;SDS011;37572;52.094;4.870;2023-07-13T09:01:35;6.47;;;2.92;;
51495;SDS011;37572;52.094;4.870;2023-07-13T09:04:16;6.90;;;4.07;;
51495;SDS011;37572;52.094;4.870;2023-07-13T09:06:56;9.35;;;4.28;;
51495;SDS011;37572;52.094;4.870;2023-07-13T09:09:42;6.05;;;4.22;;
51495;SDS011;37572;52.094;4.870;2023-07-13T09:15:14;9.00;;;4.47;;
51495;SDS011;37572;52.094;4.870;2023-07-13T09:20:44;8.30;;;4.20;;
51495;SDS011;37572;52.094;4.870;2023-07-13T09:25:40;9.95;;;4.60;;
51495;SDS011;37572;52.094;4.870;2023-07-13T09:28:10;9.23;;;4.30;;
51495;SDS011;37572;52.094;4.870;2023-07-13T09:33:09;6.05;;;3.80;;
51495;SDS011;37572;52.094;4.870;2023-07-13T09:35:35;5.60;;;3.90;;
51495;SDS011;37572;52.094;4.870;2023-07-13T09:38:17;7.88;;;3.90;;
51495;SDS011;37572;52.094;4.870;2023-07-13T09:40:46;8.77;;;3.92;;
51495;SDS011;37572;52.094;4.870;2023-07-13T09:43:13;8.02;;;3.47;;
51495;SDS011;37572;52.094;4.870;2023-07-13T09:45:41;5.50;;;2.92;;
51495;SDS011;37572;52.094;4.870;2023-07-13T09:48:11;8.05;;;3.90;;
51495;SDS011;37572;52.094;4.870;2023-07-13T09:50:38;7.82;;;3.83;;
51495;SDS011;37572;52.094;4.870;2023-07-13T09:53:04;8.30;;;3.72;;
51495;SDS011;37572;52.094;4.870;2023-07-13T09:55:40;9.25;;;4.72;;
51495;SDS011;37572;52.094;4.870;2023-07-13T10:01:21;7.18;;;4.00;;
51495;SDS011;37572;52.094;4.870;2023-07-13T10:03:40;8.35;;;4.57;;
51495;SDS011;37572;52.094;4.870;2023-07-13T10:06:19;6.88;;;3.85;;
51495;SDS011;37572;52.094;4.870;2023-07-13T10:08:47;7.15;;;3.83;;
51495;SDS011;37572;52.094;4.870;2023-07-13T10:11:18;7.50;;;3.90;;
51495;SDS011;37572;52.094;4.870;2023-07-13T10:16:22;4.47;;;2.58;;
51495;SDS011;37572;52.094;4.870;2023-07-13T10:18:51;7.63;;;3.33;;
51495;SDS011;37572;52.094;4.870;2023-07-13T10:21:22;5.07;;;2.95;;
51495;SDS011;37572;52.094;4.870;2023-07-13T10:23:55;5.68;;;3.33;;
51495;SDS011;37572;52.094;4.870;2023-07-13T10:26:34;6.90;;;3.10;;
51495;SDS011;37572;52.094;4.870;2023-07-13T10:29:03;5.53;;;3.05;;
51495;SDS011;37572;52.094;4.870;2023-07-13T10:31:33;6.38;;;3.85;;
51495;SDS011;37572;52.094;4.870;2023-07-13T10:34:02;5.63;;;3.47;;
51495;SDS011;37572;52.094;4.870;2023-07-13T10:39:04;4.90;;;3.30;;
51495;SDS011;37572;52.094;4.870;2023-07-13T10:41:31;5.65;;;3.50;;
51495;SDS011;37572;52.094;4.870;2023-07-13T10:44:01;7.60;;;3.45;;
51495;SDS011;37572;52.094;4.870;2023-07-13T10:46:29;9.27;;;4.00;;
51495;SDS011;37572;52.094;4.870;2023-07-13T10:48:57;6.07;;;3.10;;
51495;SDS011;37572;52.094;4.870;2023-07-13T10:51:32;7.13;;;3.70;;
51495;SDS011;37572;52.094;4.870;2023-07-13T10:56:44;6.82;;;3.90;;
51495;SDS011;37572;52.094;4.870;2023-07-13T11:02:25;6.95;;;3.83;;
51495;SDS011;37572;52.094;4.870;2023-07-13T11:04:31;5.60;;;2.78;;
51495;SDS011;37572;52.094;4.870;2023-07-13T11:07:10;4.53;;;2.65;;
51495;SDS011;37572;52.094;4.870;2023-07-13T11:09:54;7.18;;;3.15;;
51495;SDS011;37572;52.094;4.870;2023-07-13T11:19:53;5.73;;;3.17;;
51495;SDS011;37572;52.094;4.870;2023-07-13T11:22:23;5.60;;;3.13;;
51495;SDS011;37572;52.094;4.870;2023-07-13T11:24:57;5.65;;;2.83;;
51495;SDS011;37572;52.094;4.870;2023-07-13T11:30:13;4.75;;;3.10;;
51495;SDS011;37572;52.094;4.870;2023-07-13T11:32:42;7.18;;;3.30;;
51495;SDS011;37572;52.094;4.870;2023-07-13T11:35:20;5.28;;;2.92;;
51495;SDS011;37572;52.094;4.870;2023-07-13T11:37:51;7.65;;;2.97;;
51495;SDS011;37572;52.094;4.870;2023-07-13T11:40:17;5.75;;;3.22;;
51495;SDS011;37572;52.094;4.870;2023-07-13T11:42:42;6.80;;;3.75;;
51495;SDS011;37572;52.094;4.870;2023-07-13T11:45:18;7.30;;;3.13;;
51495;SDS011;37572;52.094;4.870;2023-07-13T11:47:48;5.10;;;2.92;;
51495;SDS011;37572;52.094;4.870;2023-07-13T11:50:21;6.15;;;3.38;;
51495;SDS011;37572;52.094;4.870;2023-07-13T11:52:49;5.90;;;3.90;;
51495;SDS011;37572;52.094;4.870;2023-07-13T11:55:18;4.95;;;2.92;;
51495;SDS011;37572;52.094;4.870;2023-07-13T11:57:45;5.95;;;2.33;;
51495;SDS011;37572;52.094;4.870;2023-07-13T12:00:21;5.50;;;2.88;;
51495;SDS011;37572;52.094;4.870;2023-07-13T12:02:49;3.38;;;2.55;;
51495;SDS011;37572;52.094;4.870;2023-07-13T12:05:17;4.88;;;3.17;;
51495;SDS011;37572;52.094;4.870;2023-07-13T12:07:45;5.50;;;2.60;;
51495;SDS011;37572;52.094;4.870;2023-07-13T12:12:50;4.05;;;2.58;;
51495;SDS011;37572;52.094;4.870;2023-07-13T12:15:18;3.83;;;2.65;;
51495;SDS011;37572;52.094;4.870;2023-07-13T12:17:43;5.63;;;2.72;;
51495;SDS011;37572;52.094;4.870;2023-07-13T12:20:21;4.90;;;2.50;;
51495;SDS011;37572;52.094;4.870;2023-07-13T12:22:50;6.35;;;2.85;;
51495;SDS011;37572;52.094;4.870;2023-07-13T12:25:16;4.35;;;2.33;;
51495;SDS011;37572;52.094;4.870;2023-07-13T12:27:46;5.38;;;2.20;;
51495;SDS011;37572;52.094;4.870;2023-07-13T12:35:29;4.13;;;2.47;;
51495;SDS011;37572;52.094;4.870;2023-07-13T12:37:56;5.25;;;1.90;;
51495;SDS011;37572;52.094;4.870;2023-07-13T12:40:27;5.45;;;2.58;;
51495;SDS011;37572;52.094;4.870;2023-07-13T12:42:57;3.90;;;2.13;;
51495;SDS011;37572;52.094;4.870;2023-07-13T12:45:26;4.80;;;2.25;;
51495;SDS011;37572;52.094;4.870;2023-07-13T12:47:57;4.10;;;2.78;;
51495;SDS011;37572;52.094;4.870;2023-07-13T12:50:30;4.60;;;2.40;;
51495;SDS011;37572;52.094;4.870;2023-07-13T12:53:03;6.53;;;2.75;;
51495;SDS011;37572;52.094;4.870;2023-07-13T12:55:39;5.43;;;2.50;;
51495;SDS011;37572;52.094;4.870;2023-07-13T12:58:09;4.78;;;2.45;;
51495;SDS011;37572;52.094;4.870;2023-07-13T13:00:47;4.18;;;2.05;;
51495;SDS011;37572;52.094;4.870;2023-07-13T13:05:47;4.85;;;2.22;;
51495;SDS011;37572;52.094;4.870;2023-07-13T13:08:12;4.68;;;2.80;;
51495;SDS011;37572;52.094;4.870;2023-07-13T13:10:38;4.70;;;2.20;;
51495;SDS011;37572;52.094;4.870;2023-07-13T13:13:04;5.65;;;2.50;;
51495;SDS011;37572;52.094;4.870;2023-07-13T13:15:29;5.65;;;2.28;;
51495;SDS011;37572;52.094;4.870;2023-07-13T13:17:55;5.10;;;2.20;;
51495;SDS011;37572;52.094;4.870;2023-07-13T13:20:21;6.75;;;2.30;;
51495;SDS011;37572;52.094;4.870;2023-07-13T13:22:47;3.92;;;2.10;;
51495;SDS011;37572;52.094;4.870;2023-07-13T13:25:13;4.22;;;1.83;;
51495;SDS011;37572;52.094;4.870;2023-07-13T13:27:42;6.35;;;2.45;;
51495;SDS011;37572;52.094;4.870;2023-07-13T13:30:12;4.55;;;2.15;;
51495;SDS011;37572;52.094;4.870;2023-07-13T13:32:40;4.13;;;2.28;;
51495;SDS011;37572;52.094;4.870;2023-07-13T13:35:17;5.20;;;2.45;;
51495;SDS011;37572;52.094;4.870;2023-07-13T13:37:45;3.90;;;2.08;;
51495;SDS011;37572;52.094;4.870;2023-07-13T13:42:47;4.65;;;2.30;;
51495;SDS011;37572;52.094;4.870;2023-07-13T13:45:12;4.50;;;1.80;;
51495;SDS011;37572;52.094;4.870;2023-07-13T13:47:38;5.00;;;2.10;;
51495;SDS011;37572;52.094;4.870;2023-07-13T13:50:27;4.63;;;2.22;;
51495;SDS011;37572;52.094;4.870;2023-07-13T13:52:50;4.90;;;2.40;;
51495;SDS011;37572;52.094;4.870;2023-07-13T13:55:20;3.83;;;2.13;;
51495;SDS011;37572;52.094;4.870;2023-07-13T13:57:46;4.60;;;2.13;;
51495;SDS011;37572;52.094;4.870;2023-07-13T14:00:13;4.20;;;2.28;;
51495;SDS011;37572;52.094;4.870;2023-07-13T14:02:40;4.15;;;2.20;;
51495;SDS011;37572;52.094;4.870;2023-07-13T14:05:09;6.30;;;2.55;;
51495;SDS011;37572;52.094;4.870;2023-07-13T14:07:37;4.32;;;2.42;;
51495;SDS011;37572;52.094;4.870;2023-07-13T14:10:08;7.78;;;2.75;;
51495;SDS011;37572;52.094;4.870;2023-07-13T14:12:36;4.15;;;2.60;;
51495;SDS011;37572;52.094;4.870;2023-07-13T14:15:02;5.60;;;2.20;;
51495;SDS011;37572;52.094;4.870;2023-07-13T14:17:27;5.95;;;2.30;;
51495;SDS011;37572;52.094;4.870;2023-07-13T14:19:53;7.55;;;2.70;;
51495;SDS011;37572;52.094;4.870;2023-07-13T14:22:25;6.30;;;2.25;;
51495;SDS011;37572;52.094;4.870;2023-07-13T14:24:54;4.30;;;2.33;;
51495;SDS011;37572;52.094;4.870;2023-07-13T14:27:20;4.53;;;2.45;;
51495;SDS011;37572;52.094;4.870;2023-07-13T14:29:46;5.15;;;1.70;;
51495;SDS011;37572;52.094;4.870;2023-07-13T14:32:12;5.03;;;2.20;;
51495;SDS011;37572;52.094;4.870;2023-07-13T14:34:38;5.13;;;1.67;;
51495;SDS011;37572;52.094;4.870;2023-07-13T14:37:04;3.80;;;1.88;;
51495;SDS011;37572;52.094;4.870;2023-07-13T14:39:30;4.13;;;2.22;;
51495;SDS011;37572;52.094;4.870;2023-07-13T14:41:56;5.57;;;2.63;;
51495;SDS011;37572;52.094;4.870;2023-07-13T14:44:29;5.53;;;1.70;;
51495;SDS011;37572;52.094;4.870;2023-07-13T14:46:59;4.40;;;1.80;;
51495;SDS011;37572;52.094;4.870;2023-07-13T14:49:32;2.72;;;1.70;;
51495;SDS011;37572;52.094;4.870;2023-07-13T14:52:08;3.90;;;1.50;;
51495;SDS011;37572;52.094;4.870;2023-07-13T14:54:38;4.88;;;1.92;;
51495;SDS011;37572;52.094;4.870;2023-07-13T14:57:16;4.80;;;2.05;;
51495;SDS011;37572;52.094;4.870;2023-07-13T14:59:43;4.72;;;2.13;;
51495;SDS011;37572;52.094;4.870;2023-07-13T15:04:46;4.30;;;1.90;;
51495;SDS011;37572;52.094;4.870;2023-07-13T15:07:12;4.82;;;1.73;;
51495;SDS011;37572;52.094;4.870;2023-07-13T15:09:40;4.38;;;1.95;;
51495;SDS011;37572;52.094;4.870;2023-07-13T15:12:06;5.28;;;2.30;;
51495;SDS011;37572;52.094;4.870;2023-07-13T15:14:32;4.40;;;2.20;;
51495;SDS011;37572;52.094;4.870;2023-07-13T15:16:57;3.70;;;1.98;;
51495;SDS011;37572;52.094;4.870;2023-07-13T15:19:23;5.80;;;2.30;;
51495;SDS011;37572;52.094;4.870;2023-07-13T15:21:50;4.28;;;2.15;;
51495;SDS011;37572;52.094;4.870;2023-07-13T15:24:17;5.38;;;2.92;;
51495;SDS011;37572;52.094;4.870;2023-07-13T15:26:42;3.55;;;1.98;;
51495;SDS011;37572;52.094;4.870;2023-07-13T15:29:10;4.50;;;1.85;;
51495;SDS011;37572;52.094;4.870;2023-07-13T15:31:36;3.30;;;1.98;;
51495;SDS011;37572;52.094;4.870;2023-07-13T15:34:04;3.65;;;1.88;;
51495;SDS011;37572;52.094;4.870;2023-07-13T15:36:37;3.70;;;2.00;;
51495;SDS011;37572;52.094;4.870;2023-07-13T15:39:02;5.18;;;1.90;;
51495;SDS011;37572;52.094;4.870;2023-07-13T15:41:28;4.22;;;1.90;;